sensor_id;sensor_type;location;lat;lon;timestamp;P1;durP1;ratioP1;P2;durP2;ratioP2
64932;SDS011;51446;53.850;10.662;2022-12-07T00:02:22;13.13;;;9.67;;
64932;SDS011;51446;53.850;10.662;2022-12-07T00:04:48;14.53;;;10.03;;
64932;SDS011;51446;53.850;10.662;2022-12-07T00:07:14;16.92;;;9.75;;
64932;SDS011;51446;53.850;10.662;2022-12-07T00:09:39;15.87;;;10.30;;
64932;SDS011;51446;53.850;10.662;2022-12-07T00:12:06;19.45;;;11.15;;
64932;SDS011;51446;53.850;10.662;2022-12-07T00:14:32;16.40;;;10.77;;
64932;SDS011;51446;53.850;10.662;2022-12-07T00:16:57;14.10;;;9.93;;
64932;SDS011;51446;53.850;10.662;2022-12-07T00:19:22;14.33;;;10.33;;
64932;SDS011;51446;53.850;10.662;2022-12-07T00:21:47;14.80;;;10.30;;
64932;SDS011;51446;53.850;10.662;2022-12-07T00:24:13;15.88;;;11.40;;
64932;SDS011;51446;53.850;10.662;2022-12-07T00:26:39;17.48;;;11.27;;
64932;SDS011;51446;53.850;10.662;2022-12-07T00:29:16;23.43;;;11.50;;
64932;SDS011;51446;53.850;10.662;2022-12-07T00:31:44;17.02;;;11.45;;
64932;SDS011;51446;53.850;10.662;2022-12-07T00:34:14;17.98;;;11.38;;
64932;SDS011;51446;53.850;10.662;2022-12-07T00:36:41;21.20;;;12.30;;
64932;SDS011;51446;53.850;10.662;2022-12-07T00:39:07;18.37;;;12.13;;
64932;SDS011;51446;53.850;10.662;2022-12-07T00:41:33;15.65;;;10.85;;
64932;SDS011;51446;53.850;10.662;2022-12-07T00:43:58;17.70;;;11.63;;
64932;SDS011;51446;53.850;10.662;2022-12-07T00:46:24;19.03;;;12.10;;
64932;SDS011;51446;53.850;10.662;2022-12-07T00:48:50;20.80;;;11.50;;
64932;SDS011;51446;53.850;10.662;2022-12-07T00:51:17;21.65;;;12.05;;
64932;SDS011;51446;53.850;10.662;2022-12-07T00:53:43;21.38;;;13.18;;
64932;SDS011;51446;53.850;10.662;2022-12-07T00:56:11;23.90;;;13.00;;
64932;SDS011;51446;53.850;10.662;2022-12-07T00:58:37;20.90;;;12.48;;
64932;SDS011;51446;53.850;10.662;2022-12-07T01:01:04;17.97;;;12.30;;
64932;SDS011;51446;53.850;10.662;2022-12-07T01:03:30;20.80;;;12.65;;
64932;SDS011;51446;53.850;10.662;2022-12-07T01:05:56;20.23;;;12.25;;
64932;SDS011;51446;53.850;10.662;2022-12-07T01:08:22;20.45;;;12.10;;
64932;SDS011;51446;53.850;10.662;2022-12-07T01:10:48;17.65;;;11.70;;
64932;SDS011;51446;53.850;10.662;2022-12-07T01:13:14;17.77;;;10.50;;
64932;SDS011;51446;53.850;10.662;2022-12-07T01:15:43;14.00;;;9.87;;
64932;SDS011;51446;53.850;10.662;2022-12-07T01:18:09;14.32;;;9.48;;
64932;SDS011;51446;53.850;10.662;2022-12-07T01:20:35;12.30;;;8.73;;
64932;SDS011;51446;53.850;10.662;2022-12-07T01:23:01;11.87;;;8.40;;
64932;SDS011;51446;53.850;10.662;2022-12-07T01:25:26;9.83;;;7.87;;
64932;SDS011;51446;53.850;10.662;2022-12-07T01:27:52;12.82;;;8.00;;
64932;SDS011;51446;53.850;10.662;2022-12-07T01:30:17;12.87;;;8.43;;
64932;SDS011;51446;53.850;10.662;2022-12-07T01:32:42;12.87;;;8.50;;
64932;SDS011;51446;53.850;10.662;2022-12-07T01:35:08;16.50;;;10.17;;
64932;SDS011;51446;53.850;10.662;2022-12-07T01:37:37;17.37;;;11.20;;
64932;SDS011;51446;53.850;10.662;2022-12-07T01:40:03;20.77;;;11.07;;
64932;SDS011;51446;53.850;10.662;2022-12-07T01:42:30;19.58;;;11.50;;
64932;SDS011;51446;53.850;10.662;2022-12-07T01:47:43;20.50;;;13.10;;
64932;SDS011;51446;53.850;10.662;2022-12-07T01:50:12;20.17;;;12.70;;
64932;SDS011;51446;53.850;10.662;2022-12-07T01:52:38;27.50;;;14.30;;
64932;SDS011;51446;53.850;10.662;2022-12-07T01:55:06;23.05;;;13.48;;
64932;SDS011;51446;53.850;10.662;2022-12-07T01:57:34;23.08;;;14.25;;
64932;SDS011;51446;53.850;10.662;2022-12-07T02:00:05;24.85;;;14.77;;
64932;SDS011;51446;53.850;10.662;2022-12-07T02:02:34;30.07;;;13.93;;
64932;SDS011;51446;53.850;10.662;2022-12-07T02:05:03;23.20;;;14.38;;
64932;SDS011;51446;53.850;10.662;2022-12-07T02:07:30;27.25;;;13.80;;
64932;SDS011;51446;53.850;10.662;2022-12-07T02:09:57;24.80;;;14.98;;
64932;SDS011;51446;53.850;10.662;2022-12-07T02:12:51;24.27;;;15.40;;
64932;SDS011;51446;53.850;10.662;2022-12-07T02:15:20;26.63;;;13.97;;
64932;SDS011;51446;53.850;10.662;2022-12-07T02:18:01;24.42;;;13.73;;
64932;SDS011;51446;53.850;10.662;2022-12-07T02:29:09;24.30;;;13.23;;
64932;SDS011;51446;53.850;10.662;2022-12-07T02:32:27;23.70;;;14.77;;
64932;SDS011;51446;53.850;10.662;2022-12-07T02:37:10;23.88;;;13.48;;
64932;SDS011;51446;53.850;10.662;2022-12-07T02:39:59;23.45;;;13.93;;
64932;SDS011;51446;53.850;10.662;2022-12-07T02:42:44;21.47;;;13.00;;
64932;SDS011;51446;53.850;10.662;2022-12-07T02:45:14;19.77;;;12.35;;
64932;SDS011;51446;53.850;10.662;2022-12-07T02:47:41;20.98;;;12.82;;
64932;SDS011;51446;53.850;10.662;2022-12-07T02:50:09;17.70;;;11.75;;
64932;SDS011;51446;53.850;10.662;2022-12-07T02:52:35;17.60;;;11.93;;
64932;SDS011;51446;53.850;10.662;2022-12-07T02:55:00;17.33;;;11.23;;
64932;SDS011;51446;53.850;10.662;2022-12-07T03:00:11;17.80;;;10.10;;
64932;SDS011;51446;53.850;10.662;2022-12-07T03:02:49;21.92;;;11.07;;
64932;SDS011;51446;53.850;10.662;2022-12-07T03:11:04;14.02;;;8.95;;
64932;SDS011;51446;53.850;10.662;2022-12-07T03:13:35;15.48;;;9.82;;
64932;SDS011;51446;53.850;10.662;2022-12-07T03:16:22;15.52;;;9.13;;
64932;SDS011;51446;53.850;10.662;2022-12-07T03:18:55;12.10;;;8.20;;
64932;SDS011;51446;53.850;10.662;2022-12-07T03:21:26;13.50;;;8.93;;
64932;SDS011;51446;53.850;10.662;2022-12-07T03:24:02;12.25;;;8.30;;
64932;SDS011;51446;53.850;10.662;2022-12-07T03:26:31;10.73;;;8.25;;
64932;SDS011;51446;53.850;10.662;2022-12-07T03:29:02;13.32;;;8.30;;
64932;SDS011;51446;53.850;10.662;2022-12-07T03:31:33;10.82;;;8.07;;
64932;SDS011;51446;53.850;10.662;2022-12-07T03:34:06;12.37;;;7.67;;
64932;SDS011;51446;53.850;10.662;2022-12-07T03:36:40;11.50;;;7.63;;
64932;SDS011;51446;53.850;10.662;2022-12-07T03:39:16;10.60;;;7.72;;
64932;SDS011;51446;53.850;10.662;2022-12-07T03:41:47;10.95;;;6.88;;
64932;SDS011;51446;53.850;10.662;2022-12-07T03:44:14;12.02;;;7.32;;
64932;SDS011;51446;53.850;10.662;2022-12-07T03:57:30;9.80;;;7.03;;
64932;SDS011;51446;53.850;10.662;2022-12-07T03:59:58;10.02;;;7.63;;
64932;SDS011;51446;53.850;10.662;2022-12-07T04:02:23;9.33;;;6.93;;
64932;SDS011;51446;53.850;10.662;2022-12-07T04:04:52;9.88;;;6.90;;
64932;SDS011;51446;53.850;10.662;2022-12-07T04:07:17;9.35;;;7.22;;
64932;SDS011;51446;53.850;10.662;2022-12-07T04:09:43;11.40;;;7.00;;
64932;SDS011;51446;53.850;10.662;2022-12-07T04:12:08;10.00;;;6.73;;
64932;SDS011;51446;53.850;10.662;2022-12-07T04:14:33;11.37;;;6.10;;
64932;SDS011;51446;53.850;10.662;2022-12-07T04:16:58;8.27;;;6.73;;
64932;SDS011;51446;53.850;10.662;2022-12-07T04:19:25;11.27;;;6.37;;
64932;SDS011;51446;53.850;10.662;2022-12-07T04:21:52;8.52;;;6.25;;
64932;SDS011;51446;53.850;10.662;2022-12-07T04:24:18;8.63;;;6.57;;
64932;SDS011;51446;53.850;10.662;2022-12-07T04:26:43;7.80;;;5.90;;
64932;SDS011;51446;53.850;10.662;2022-12-07T04:29:10;11.10;;;6.17;;
64932;SDS011;51446;53.850;10.662;2022-12-07T04:31:36;8.13;;;6.32;;
64932;SDS011;51446;53.850;10.662;2022-12-07T04:34:02;8.50;;;6.00;;
64932;SDS011;51446;53.850;10.662;2022-12-07T04:36:28;11.20;;;6.78;;
64932;SDS011;51446;53.850;10.662;2022-12-07T04:38:54;6.73;;;6.03;;
64932;SDS011;51446;53.850;10.662;2022-12-07T04:41:20;11.57;;;6.65;;
64932;SDS011;51446;53.850;10.662;2022-12-07T04:43:51;7.30;;;6.20;;
64932;SDS011;51446;53.850;10.662;2022-12-07T04:46:22;7.68;;;5.95;;
64932;SDS011;51446;53.850;10.662;2022-12-07T04:48:49;8.40;;;6.78;;
64932;SDS011;51446;53.850;10.662;2022-12-07T04:51:15;9.75;;;6.50;;
64932;SDS011;51446;53.850;10.662;2022-12-07T04:53:45;8.67;;;6.93;;
64932;SDS011;51446;53.850;10.662;2022-12-07T04:56:10;7.55;;;6.45;;
64932;SDS011;51446;53.850;10.662;2022-12-07T04:58:35;10.13;;;7.82;;
64932;SDS011;51446;53.850;10.662;2022-12-07T05:01:01;9.43;;;7.40;;
64932;SDS011;51446;53.850;10.662;2022-12-07T05:03:26;7.90;;;6.30;;
64932;SDS011;51446;53.850;10.662;2022-12-07T05:05:51;9.75;;;6.88;;
64932;SDS011;51446;53.850;10.662;2022-12-07T05:08:16;7.97;;;6.82;;
64932;SDS011;51446;53.850;10.662;2022-12-07T05:10:42;10.55;;;7.53;;
64932;SDS011;51446;53.850;10.662;2022-12-07T05:13:07;8.38;;;6.80;;
64932;SDS011;51446;53.850;10.662;2022-12-07T05:15:32;8.57;;;7.25;;
64932;SDS011;51446;53.850;10.662;2022-12-07T05:17:57;10.15;;;7.55;;
64932;SDS011;51446;53.850;10.662;2022-12-07T05:20:23;11.20;;;7.22;;
64932;SDS011;51446;53.850;10.662;2022-12-07T05:22:48;8.37;;;6.87;;
64932;SDS011;51446;53.850;10.662;2022-12-07T05:25:13;10.07;;;7.43;;
64932;SDS011;51446;53.850;10.662;2022-12-07T05:27:38;10.50;;;7.73;;
64932;SDS011;51446;53.850;10.662;2022-12-07T05:30:04;13.87;;;7.23;;
64932;SDS011;51446;53.850;10.662;2022-12-07T05:32:30;12.30;;;7.87;;
64932;SDS011;51446;53.850;10.662;2022-12-07T05:34:55;11.13;;;7.93;;
64932;SDS011;51446;53.850;10.662;2022-12-07T05:37:21;15.77;;;7.50;;
64932;SDS011;51446;53.850;10.662;2022-12-07T05:39:46;9.50;;;7.17;;
64932;SDS011;51446;53.850;10.662;2022-12-07T05:42:11;10.43;;;7.27;;
64932;SDS011;51446;53.850;10.662;2022-12-07T05:44:37;12.77;;;7.50;;
64932;SDS011;51446;53.850;10.662;2022-12-07T05:47:02;11.43;;;7.67;;
64932;SDS011;51446;53.850;10.662;2022-12-07T05:49:28;10.80;;;7.57;;
64932;SDS011;51446;53.850;10.662;2022-12-07T05:51:53;9.67;;;7.17;;
64932;SDS011;51446;53.850;10.662;2022-12-07T05:54:19;9.33;;;7.40;;
64932;SDS011;51446;53.850;10.662;2022-12-07T05:56:44;12.88;;;6.82;;
64932;SDS011;51446;53.850;10.662;2022-12-07T05:59:10;12.07;;;7.40;;
64932;SDS011;51446;53.850;10.662;2022-12-07T06:01:48;9.88;;;7.50;;
64932;SDS011;51446;53.850;10.662;2022-12-07T06:04:14;8.88;;;7.07;;
64932;SDS011;51446;53.850;10.662;2022-12-07T06:06:39;10.93;;;7.60;;
64932;SDS011;51446;53.850;10.662;2022-12-07T06:09:04;10.13;;;8.00;;
64932;SDS011;51446;53.850;10.662;2022-12-07T06:11:29;12.00;;;8.73;;
64932;SDS011;51446;53.850;10.662;2022-12-07T06:14:14;12.65;;;8.65;;
64932;SDS011;51446;53.850;10.662;2022-12-07T06:16:39;10.67;;;8.10;;
64932;SDS011;51446;53.850;10.662;2022-12-07T06:19:04;10.73;;;8.00;;
64932;SDS011;51446;53.850;10.662;2022-12-07T06:21:30;11.70;;;8.50;;
64932;SDS011;51446;53.850;10.662;2022-12-07T06:23:55;15.07;;;8.80;;
64932;SDS011;51446;53.850;10.662;2022-12-07T06:26:21;13.60;;;9.20;;
64932;SDS011;51446;53.850;10.662;2022-12-07T06:28:47;15.10;;;9.40;;
64932;SDS011;51446;53.850;10.662;2022-12-07T06:31:12;14.17;;;9.77;;
64932;SDS011;51446;53.850;10.662;2022-12-07T06:33:38;15.55;;;10.23;;
64932;SDS011;51446;53.850;10.662;2022-12-07T06:36:03;16.87;;;10.53;;
64932;SDS011;51446;53.850;10.662;2022-12-07T06:38:28;15.50;;;10.20;;
64932;SDS011;51446;53.850;10.662;2022-12-07T06:40:54;17.27;;;10.30;;
64932;SDS011;51446;53.850;10.662;2022-12-07T06:43:19;20.00;;;9.77;;
64932;SDS011;51446;53.850;10.662;2022-12-07T06:45:44;19.50;;;11.53;;
64932;SDS011;51446;53.850;10.662;2022-12-07T06:48:10;20.73;;;11.70;;
64932;SDS011;51446;53.850;10.662;2022-12-07T06:50:35;16.80;;;11.00;;
64932;SDS011;51446;53.850;10.662;2022-12-07T06:53:00;15.20;;;10.20;;
64932;SDS011;51446;53.850;10.662;2022-12-07T06:55:26;14.90;;;10.40;;
64932;SDS011;51446;53.850;10.662;2022-12-07T06:57:51;12.93;;;9.63;;
64932;SDS011;51446;53.850;10.662;2022-12-07T07:00:16;13.63;;;9.80;;
64932;SDS011;51446;53.850;10.662;2022-12-07T07:02:42;13.33;;;9.53;;
64932;SDS011;51446;53.850;10.662;2022-12-07T07:05:07;14.37;;;9.53;;
64932;SDS011;51446;53.850;10.662;2022-12-07T07:07:33;13.50;;;8.70;;
64932;SDS011;51446;53.850;10.662;2022-12-07T07:09:59;13.85;;;8.85;;
64932;SDS011;51446;53.850;10.662;2022-12-07T07:12:24;12.53;;;8.47;;
64932;SDS011;51446;53.850;10.662;2022-12-07T07:14:49;13.47;;;7.90;;
64932;SDS011;51446;53.850;10.662;2022-12-07T07:17:15;12.47;;;8.43;;
64932;SDS011;51446;53.850;10.662;2022-12-07T07:19:40;12.13;;;8.20;;
64932;SDS011;51446;53.850;10.662;2022-12-07T07:22:05;10.07;;;7.18;;
64932;SDS011;51446;53.850;10.662;2022-12-07T07:24:31;15.20;;;8.37;;
64932;SDS011;51446;53.850;10.662;2022-12-07T07:26:56;12.00;;;8.50;;
64932;SDS011;51446;53.850;10.662;2022-12-07T07:29:21;10.37;;;7.27;;
64932;SDS011;51446;53.850;10.662;2022-12-07T07:31:47;11.07;;;7.40;;
64932;SDS011;51446;53.850;10.662;2022-12-07T07:34:12;11.20;;;7.97;;
64932;SDS011;51446;53.850;10.662;2022-12-07T07:36:37;14.73;;;8.90;;
64932;SDS011;51446;53.850;10.662;2022-12-07T07:39:03;13.23;;;8.13;;
64932;SDS011;51446;53.850;10.662;2022-12-07T07:41:28;13.37;;;7.87;;
64932;SDS011;51446;53.850;10.662;2022-12-07T07:43:54;13.77;;;8.32;;
64932;SDS011;51446;53.850;10.662;2022-12-07T07:46:19;14.57;;;8.10;;
64932;SDS011;51446;53.850;10.662;2022-12-07T07:48:44;13.27;;;8.23;;
64932;SDS011;51446;53.850;10.662;2022-12-07T07:51:09;16.63;;;9.63;;
64932;SDS011;51446;53.850;10.662;2022-12-07T07:53:35;12.13;;;8.80;;
64932;SDS011;51446;53.850;10.662;2022-12-07T07:56:00;12.07;;;8.87;;
64932;SDS011;51446;53.850;10.662;2022-12-07T07:58:25;13.40;;;9.23;;
64932;SDS011;51446;53.850;10.662;2022-12-07T08:00:50;11.27;;;8.17;;
64932;SDS011;51446;53.850;10.662;2022-12-07T08:03:16;15.23;;;9.20;;
64932;SDS011;51446;53.850;10.662;2022-12-07T08:05:41;10.80;;;6.67;;
64932;SDS011;51446;53.850;10.662;2022-12-07T08:08:06;7.57;;;5.70;;
64932;SDS011;51446;53.850;10.662;2022-12-07T08:10:32;9.10;;;5.93;;
64932;SDS011;51446;53.850;10.662;2022-12-07T08:12:57;6.40;;;4.93;;
64932;SDS011;51446;53.850;10.662;2022-12-07T08:15:42;5.33;;;4.50;;
64932;SDS011;51446;53.850;10.662;2022-12-07T08:18:11;7.35;;;4.20;;
64932;SDS011;51446;53.850;10.662;2022-12-07T08:20:38;7.22;;;5.18;;
64932;SDS011;51446;53.850;10.662;2022-12-07T08:23:04;7.22;;;4.00;;
64932;SDS011;51446;53.850;10.662;2022-12-07T08:25:31;5.17;;;3.90;;
64932;SDS011;51446;53.850;10.662;2022-12-07T08:27:57;6.93;;;4.15;;
64932;SDS011;51446;53.850;10.662;2022-12-07T08:30:23;6.50;;;3.92;;
64932;SDS011;51446;53.850;10.662;2022-12-07T08:32:48;5.57;;;3.80;;
64932;SDS011;51446;53.850;10.662;2022-12-07T08:35:14;8.57;;;4.60;;
64932;SDS011;51446;53.850;10.662;2022-12-07T08:37:40;6.50;;;4.32;;
64932;SDS011;51446;53.850;10.662;2022-12-07T08:40:06;5.03;;;4.15;;
64932;SDS011;51446;53.850;10.662;2022-12-07T08:42:33;6.93;;;4.80;;
64932;SDS011;51446;53.850;10.662;2022-12-07T08:47:38;9.57;;;5.40;;
64932;SDS011;51446;53.850;10.662;2022-12-07T08:50:27;8.40;;;5.00;;
64932;SDS011;51446;53.850;10.662;2022-12-07T08:52:54;10.37;;;5.60;;
64932;SDS011;51446;53.850;10.662;2022-12-07T08:55:22;6.10;;;4.93;;
64932;SDS011;51446;53.850;10.662;2022-12-07T08:57:48;7.38;;;4.57;;
64932;SDS011;51446;53.850;10.662;2022-12-07T09:00:13;8.60;;;5.33;;
64932;SDS011;51446;53.850;10.662;2022-12-07T09:02:39;8.45;;;4.10;;
64932;SDS011;51446;53.850;10.662;2022-12-07T09:05:05;6.60;;;4.13;;
64932;SDS011;51446;53.850;10.662;2022-12-07T09:07:31;5.10;;;4.30;;
64932;SDS011;51446;53.850;10.662;2022-12-07T09:09:58;7.88;;;4.65;;
64932;SDS011;51446;53.850;10.662;2022-12-07T09:12:23;6.70;;;3.87;;
64932;SDS011;51446;53.850;10.662;2022-12-07T09:14:49;8.40;;;4.20;;
64932;SDS011;51446;53.850;10.662;2022-12-07T09:17:14;4.87;;;3.93;;
64932;SDS011;51446;53.850;10.662;2022-12-07T09:19:39;10.57;;;4.30;;
64932;SDS011;51446;53.850;10.662;2022-12-07T09:22:06;4.70;;;4.10;;
64932;SDS011;51446;53.850;10.662;2022-12-07T09:24:32;5.88;;;3.83;;
64932;SDS011;51446;53.850;10.662;2022-12-07T09:26:57;6.50;;;4.00;;
64932;SDS011;51446;53.850;10.662;2022-12-07T09:29:23;5.53;;;4.10;;
64932;SDS011;51446;53.850;10.662;2022-12-07T09:31:48;7.07;;;3.87;;
64932;SDS011;51446;53.850;10.662;2022-12-07T09:34:13;5.90;;;4.20;;
64932;SDS011;51446;53.850;10.662;2022-12-07T09:36:39;6.27;;;4.10;;
64932;SDS011;51446;53.850;10.662;2022-12-07T09:39:04;5.43;;;4.20;;
64932;SDS011;51446;53.850;10.662;2022-12-07T09:41:30;9.20;;;4.23;;
64932;SDS011;51446;53.850;10.662;2022-12-07T09:43:59;6.78;;;3.72;;
64932;SDS011;51446;53.850;10.662;2022-12-07T09:46:29;7.85;;;4.20;;
64932;SDS011;51446;53.850;10.662;2022-12-07T09:49:04;5.75;;;3.75;;
64932;SDS011;51446;53.850;10.662;2022-12-07T09:51:30;10.52;;;4.35;;
64932;SDS011;51446;53.850;10.662;2022-12-07T09:53:56;5.33;;;3.80;;
64932;SDS011;51446;53.850;10.662;2022-12-07T09:56:23;9.95;;;3.70;;
64932;SDS011;51446;53.850;10.662;2022-12-07T09:58:49;13.88;;;3.80;;
64932;SDS011;51446;53.850;10.662;2022-12-07T10:01:17;6.35;;;4.00;;
64932;SDS011;51446;53.850;10.662;2022-12-07T10:03:48;3.73;;;3.43;;
64932;SDS011;51446;53.850;10.662;2022-12-07T10:06:16;8.02;;;3.65;;
64932;SDS011;51446;53.850;10.662;2022-12-07T10:08:42;6.40;;;3.75;;
64932;SDS011;51446;53.850;10.662;2022-12-07T10:11:08;7.13;;;3.55;;
64932;SDS011;51446;53.850;10.662;2022-12-07T10:13:42;7.43;;;3.60;;
64932;SDS011;51446;53.850;10.662;2022-12-07T10:19:17;4.05;;;3.22;;
64932;SDS011;51446;53.850;10.662;2022-12-07T10:22:00;7.15;;;3.50;;
64932;SDS011;51446;53.850;10.662;2022-12-07T10:24:26;5.43;;;3.08;;
64932;SDS011;51446;53.850;10.662;2022-12-07T10:26:52;11.30;;;3.83;;
64932;SDS011;51446;53.850;10.662;2022-12-07T10:29:23;5.83;;;3.00;;
64932;SDS011;51446;53.850;10.662;2022-12-07T10:34:51;6.43;;;3.15;;
64932;SDS011;51446;53.850;10.662;2022-12-07T10:37:39;12.20;;;4.07;;
64932;SDS011;51446;53.850;10.662;2022-12-07T10:40:10;6.28;;;3.90;;
64932;SDS011;51446;53.850;10.662;2022-12-07T10:45:41;6.43;;;3.63;;
64932;SDS011;51446;53.850;10.662;2022-12-07T10:48:11;7.88;;;4.50;;
64932;SDS011;51446;53.850;10.662;2022-12-07T10:53:33;7.35;;;4.10;;
64932;SDS011;51446;53.850;10.662;2022-12-07T11:02:01;10.30;;;4.90;;
64932;SDS011;51446;53.850;10.662;2022-12-07T11:07:28;6.65;;;2.83;;
64932;SDS011;51446;53.850;10.662;2022-12-07T11:13:20;7.90;;;3.20;;
64932;SDS011;51446;53.850;10.662;2022-12-07T11:18:29;13.13;;;5.82;;
64932;SDS011;51446;53.850;10.662;2022-12-07T11:23:46;8.57;;;2.83;;
64932;SDS011;51446;53.850;10.662;2022-12-07T11:26:32;6.43;;;2.92;;
64932;SDS011;51446;53.850;10.662;2022-12-07T11:37:13;5.47;;;2.30;;
64932;SDS011;51446;53.850;10.662;2022-12-07T11:39:55;9.40;;;2.60;;
64932;SDS011;51446;53.850;10.662;2022-12-07T11:42:30;6.95;;;2.78;;
64932;SDS011;51446;53.850;10.662;2022-12-07T11:45:03;7.00;;;3.28;;
64932;SDS011;51446;53.850;10.662;2022-12-07T11:56:08;5.47;;;2.72;;
64932;SDS011;51446;53.850;10.662;2022-12-07T12:03:53;8.37;;;2.77;;
64932;SDS011;51446;53.850;10.662;2022-12-07T12:06:42;5.28;;;3.10;;
64932;SDS011;51446;53.850;10.662;2022-12-07T12:17:45;2.90;;;2.70;;
64932;SDS011;51446;53.850;10.662;2022-12-07T12:20:32;2.95;;;2.40;;
64932;SDS011;51446;53.850;10.662;2022-12-07T12:23:12;6.80;;;2.75;;
64932;SDS011;51446;53.850;10.662;2022-12-07T12:28:20;5.68;;;2.50;;
64932;SDS011;51446;53.850;10.662;2022-12-07T12:31:05;9.47;;;2.50;;
64932;SDS011;51446;53.850;10.662;2022-12-07T12:33:31;2.90;;;2.70;;
64932;SDS011;51446;53.850;10.662;2022-12-07T12:51:48;6.30;;;2.50;;
64932;SDS011;51446;53.850;10.662;2022-12-07T12:56:48;9.32;;;3.30;;
64932;SDS011;51446;53.850;10.662;2022-12-07T13:01:54;4.43;;;2.50;;
64932;SDS011;51446;53.850;10.662;2022-12-07T13:04:39;5.68;;;2.47;;
64932;SDS011;51446;53.850;10.662;2022-12-07T13:12:55;3.93;;;2.30;;
64932;SDS011;51446;53.850;10.662;2022-12-07T13:20:51;2.83;;;2.45;;
64932;SDS011;51446;53.850;10.662;2022-12-07T13:23:19;4.75;;;2.50;;
64932;SDS011;51446;53.850;10.662;2022-12-07T13:28:38;4.93;;;2.50;;
64932;SDS011;51446;53.850;10.662;2022-12-07T13:33:34;3.40;;;2.67;;
64932;SDS011;51446;53.850;10.662;2022-12-07T13:36:01;3.35;;;2.63;;
64932;SDS011;51446;53.850;10.662;2022-12-07T13:38:28;3.37;;;2.73;;
64932;SDS011;51446;53.850;10.662;2022-12-07T13:41:03;5.85;;;2.50;;
64932;SDS011;51446;53.850;10.662;2022-12-07T13:43:48;6.53;;;2.60;;
64932;SDS011;51446;53.850;10.662;2022-12-07T13:46:17;3.83;;;3.50;;
64932;SDS011;51446;53.850;10.662;2022-12-07T13:48:51;3.90;;;3.00;;
64932;SDS011;51446;53.850;10.662;2022-12-07T13:51:18;4.72;;;3.08;;
64932;SDS011;51446;53.850;10.662;2022-12-07T13:54:00;5.63;;;3.13;;
64932;SDS011;51446;53.850;10.662;2022-12-07T13:56:34;6.55;;;3.03;;
64932;SDS011;51446;53.850;10.662;2022-12-07T13:59:00;2.80;;;2.60;;
64932;SDS011;51446;53.850;10.662;2022-12-07T14:01:26;3.88;;;3.20;;
64932;SDS011;51446;53.850;10.662;2022-12-07T14:03:51;4.95;;;3.17;;
64932;SDS011;51446;53.850;10.662;2022-12-07T14:06:24;3.50;;;3.20;;
64932;SDS011;51446;53.850;10.662;2022-12-07T14:11:54;3.38;;;2.58;;
64932;SDS011;51446;53.850;10.662;2022-12-07T14:14:39;6.82;;;3.10;;
64932;SDS011;51446;53.850;10.662;2022-12-07T14:17:17;2.80;;;2.60;;
64932;SDS011;51446;53.850;10.662;2022-12-07T14:19:54;2.90;;;2.60;;
64932;SDS011;51446;53.850;10.662;2022-12-07T14:27:37;3.80;;;3.10;;
64932;SDS011;51446;53.850;10.662;2022-12-07T14:30:03;4.23;;;3.00;;
64932;SDS011;51446;53.850;10.662;2022-12-07T14:32:30;5.82;;;3.28;;
64932;SDS011;51446;53.850;10.662;2022-12-07T14:34:58;4.90;;;3.17;;
64932;SDS011;51446;53.850;10.662;2022-12-07T14:37:37;2.80;;;2.60;;
64932;SDS011;51446;53.850;10.662;2022-12-07T14:40:04;5.82;;;2.55;;
64932;SDS011;51446;53.850;10.662;2022-12-07T14:42:31;4.63;;;2.67;;
64932;SDS011;51446;53.850;10.662;2022-12-07T14:44:58;7.50;;;3.92;;
64932;SDS011;51446;53.850;10.662;2022-12-07T14:47:24;6.23;;;4.53;;
64932;SDS011;51446;53.850;10.662;2022-12-07T14:49:50;7.82;;;3.80;;
64932;SDS011;51446;53.850;10.662;2022-12-07T14:52:19;3.87;;;3.13;;
64932;SDS011;51446;53.850;10.662;2022-12-07T14:54:47;5.95;;;3.53;;
64932;SDS011;51446;53.850;10.662;2022-12-07T14:57:12;2.63;;;2.43;;
64932;SDS011;51446;53.850;10.662;2022-12-07T14:59:37;5.93;;;2.83;;
64932;SDS011;51446;53.850;10.662;2022-12-07T15:02:03;2.87;;;2.63;;
64932;SDS011;51446;53.850;10.662;2022-12-07T15:04:29;5.47;;;2.90;;
64932;SDS011;51446;53.850;10.662;2022-12-07T15:06:55;5.87;;;2.80;;
64932;SDS011;51446;53.850;10.662;2022-12-07T15:09:21;3.60;;;2.50;;
64932;SDS011;51446;53.850;10.662;2022-12-07T15:11:47;2.90;;;2.70;;
64932;SDS011;51446;53.850;10.662;2022-12-07T15:14:13;4.97;;;2.65;;
64932;SDS011;51446;53.850;10.662;2022-12-07T15:16:40;4.47;;;2.70;;
64932;SDS011;51446;53.850;10.662;2022-12-07T15:19:10;6.07;;;2.50;;
64932;SDS011;51446;53.850;10.662;2022-12-07T15:21:39;9.63;;;2.58;;
64932;SDS011;51446;53.850;10.662;2022-12-07T15:24:05;6.85;;;3.80;;
64932;SDS011;51446;53.850;10.662;2022-12-07T15:26:31;5.65;;;3.40;;
64932;SDS011;51446;53.850;10.662;2022-12-07T15:28:57;8.75;;;4.63;;
64932;SDS011;51446;53.850;10.662;2022-12-07T15:31:22;6.90;;;3.47;;
64932;SDS011;51446;53.850;10.662;2022-12-07T15:33:47;6.63;;;4.40;;
64932;SDS011;51446;53.850;10.662;2022-12-07T15:36:33;6.80;;;3.90;;
64932;SDS011;51446;53.850;10.662;2022-12-07T15:38:58;3.88;;;3.45;;
64932;SDS011;51446;53.850;10.662;2022-12-07T15:41:24;4.60;;;3.63;;
64932;SDS011;51446;53.850;10.662;2022-12-07T15:43:49;7.60;;;3.70;;
64932;SDS011;51446;53.850;10.662;2022-12-07T15:46:35;5.95;;;3.85;;
64932;SDS011;51446;53.850;10.662;2022-12-07T15:49:02;10.93;;;7.30;;
64932;SDS011;51446;53.850;10.662;2022-12-07T15:51:28;8.27;;;5.68;;
64932;SDS011;51446;53.850;10.662;2022-12-07T15:53:53;5.63;;;4.17;;
64932;SDS011;51446;53.850;10.662;2022-12-07T15:56:19;5.97;;;4.63;;
64932;SDS011;51446;53.850;10.662;2022-12-07T15:58:45;5.38;;;3.90;;
64932;SDS011;51446;53.850;10.662;2022-12-07T16:04:01;5.60;;;3.22;;
64932;SDS011;51446;53.850;10.662;2022-12-07T16:06:27;6.05;;;3.42;;
64932;SDS011;51446;53.850;10.662;2022-12-07T16:08:52;6.63;;;4.43;;
64932;SDS011;51446;53.850;10.662;2022-12-07T16:11:17;4.87;;;4.00;;
64932;SDS011;51446;53.850;10.662;2022-12-07T16:13:43;18.33;;;6.80;;
64932;SDS011;51446;53.850;10.662;2022-12-07T16:16:12;7.47;;;5.70;;
64932;SDS011;51446;53.850;10.662;2022-12-07T16:18:39;11.07;;;6.70;;
64932;SDS011;51446;53.850;10.662;2022-12-07T16:21:06;7.13;;;5.40;;
64932;SDS011;51446;53.850;10.662;2022-12-07T16:23:32;6.82;;;4.72;;
64932;SDS011;51446;53.850;10.662;2022-12-07T16:26:04;7.43;;;5.13;;
64932;SDS011;51446;53.850;10.662;2022-12-07T16:28:31;9.70;;;4.63;;
64932;SDS011;51446;53.850;10.662;2022-12-07T16:31:00;5.53;;;4.00;;
64932;SDS011;51446;53.850;10.662;2022-12-07T16:33:29;10.68;;;4.40;;
64932;SDS011;51446;53.850;10.662;2022-12-07T16:35:55;4.87;;;3.70;;
64932;SDS011;51446;53.850;10.662;2022-12-07T16:38:20;4.70;;;3.83;;
64932;SDS011;51446;53.850;10.662;2022-12-07T16:40:46;7.43;;;4.13;;
64932;SDS011;51446;53.850;10.662;2022-12-07T16:43:12;5.68;;;4.05;;
64932;SDS011;51446;53.850;10.662;2022-12-07T16:45:38;10.07;;;5.72;;
64932;SDS011;51446;53.850;10.662;2022-12-07T16:48:04;11.40;;;5.50;;
64932;SDS011;51446;53.850;10.662;2022-12-07T16:50:29;10.03;;;5.77;;
64932;SDS011;51446;53.850;10.662;2022-12-07T16:52:54;8.73;;;4.93;;
64932;SDS011;51446;53.850;10.662;2022-12-07T16:55:20;8.90;;;4.80;;
64932;SDS011;51446;53.850;10.662;2022-12-07T16:57:45;7.33;;;5.27;;
64932;SDS011;51446;53.850;10.662;2022-12-07T17:00:10;5.67;;;4.13;;